Terminal Aerodrome Forecast
Issued by NWS Anchorage, AK

Home | Current Version | Previous Version | Text Only | Print | Product List | Glossary On
Versions: 1 2 3 4 5 6 7 8 9 10 11 12 13 14 15 16 17 18 19 20 21
000
FTAK31 PANC 252331
TAFANC
TAF
PANC 252331Z 2600/2706 15009KT P6SM -SHRA FEW006 OVC070
     FM260600 16007KT P6SM SCT035 OVC060
     FM270000 15012G20KT P6SM SCT040 OVC070=

USA.gov is the U.S. government's official web portal to all federal, state and local government web resources and services.